Time;durP1;ratioP1;P1;durP2;ratioP2;P2;SDS_P1;SDS_P2;PMS_P1;PMS_P2;Temp;Humidity;BMP_temperature;BMP_pressure;BME280_temperature;BME280_humidity;BME280_pressure;Samples;Min_cycle;Max_cycle;Signal;HPM_P1;HPM_P2
2023/05/08 00:01:31;;;;;;;9.52;6.90;;;;;;;10.69;100.00;93269.84;5128207;27;20039;-75
2023/05/08 00:03:58;;;;;;;8.13;6.70;;;;;;;10.64;100.00;93272.25;5127551;27;20043;-74
2023/05/08 00:06:26;;;;;;;8.00;6.93;;;;;;;10.51;100.00;93264.66;5128047;27;20096;-75
2023/05/08 00:08:53;;;;;;;6.97;6.28;;;;;;;10.52;100.00;93272.13;5126269;27;20419;-74
2023/05/08 00:11:20;;;;;;;9.60;7.38;;;;;;;10.49;100.00;93276.91;5127419;27;20135;-75
2023/05/08 00:13:46;;;;;;;10.48;7.07;;;;;;;10.42;100.00;93271.78;5126813;27;20035;-75
2023/05/08 00:16:13;;;;;;;8.73;6.78;;;;;;;10.45;100.00;93280.91;5127652;27;20491;-77
2023/05/08 00:18:45;;;;;;;7.10;6.18;;;;;;;10.42;100.00;93280.28;5128148;27;20392;-77
2023/05/08 00:21:11;;;;;;;8.80;6.65;;;;;;;10.40;100.00;93278.91;5128417;28;20059;-76
2023/05/08 00:23:38;;;;;;;10.30;6.88;;;;;;;10.37;100.00;93276.75;5128564;28;20043;-77
2023/05/08 00:26:05;;;;;;;7.93;6.38;;;;;;;10.13;100.00;93256.72;5128328;28;20468;-78
2023/05/08 00:28:32;;;;;;;10.93;6.88;;;;;;;10.32;100.00;93281.72;5127843;28;20055;-75
2023/05/08 00:31:00;;;;;;;8.63;7.18;;;;;;;10.26;100.00;93283.31;5116173;28;20108;-77
2023/05/08 00:33:26;;;;;;;9.90;6.80;;;;;;;10.21;100.00;93283.94;5120333;28;20176;-75
2023/05/08 00:36:00;;;;;;;10.82;7.22;;;;;;;10.17;100.00;93285.34;5128142;28;20043;-76
2023/05/08 00:38:27;;;;;;;10.23;6.97;;;;;;;9.94;100.00;93258.41;5128025;28;20119;-75
2023/05/08 00:40:54;;;;;;;10.63;6.90;;;;;;;10.08;100.00;93279.66;5128141;28;20039;-75
2023/05/08 00:43:24;;;;;;;9.15;6.93;;;;;;;10.09;100.00;93285.59;5127648;28;20055;-75
2023/05/08 00:45:51;;;;;;;9.40;7.75;;;;;;;10.03;100.00;93285.41;5130437;27;20054;-75
2023/05/08 00:48:18;;;;;;;10.20;7.10;;;;;;;10.04;100.00;93288.75;5131940;27;20122;-75
2023/05/08 00:50:45;;;;;;;8.30;6.90;;;;;;;10.02;100.00;93294.09;5132059;27;20039;-75
2023/05/08 00:53:14;;;;;;;8.50;7.50;;;;;;;9.76;100.00;93257.28;5132113;27;20419;-75
2023/05/08 00:55:41;;;;;;;9.15;7.25;;;;;;;9.98;100.00;93297.25;5132004;27;20123;-75
2023/05/08 00:58:08;;;;;;;8.60;7.03;;;;;;;9.94;100.00;93298.66;5129260;27;20047;-76
2023/05/08 01:00:36;;;;;;;8.32;6.50;;;;;;;9.89;100.00;93304.41;5113904;27;20504;-76
2023/05/08 01:03:04;;;;;;;8.38;6.80;;;;;;;9.85;100.00;93305.78;5104975;27;20043;-75
2023/05/08 01:05:31;;;;;;;7.72;6.43;;;;;;;9.80;100.00;93295.34;5131996;27;20415;-75
2023/05/08 01:07:58;;;;;;;8.02;6.60;;;;;;;9.76;100.00;93310.34;5132167;27;20051;-76
2023/05/08 01:10:37;;;;;;;7.97;6.80;;;;;;;9.70;100.00;93303.47;5131258;27;20058;-76
2023/05/08 01:13:11;;;;;;;8.65;7.53;;;;;;;9.71;100.00;93310.97;5131072;27;20051;-75
2023/05/08 01:15:44;;;;;;;8.07;6.63;;;;;;;9.69;100.00;93304.47;5131430;27;20092;-76
2023/05/08 01:18:17;;;;;;;8.07;6.95;;;;;;;9.63;100.00;93306.06;5131575;27;20403;-75
2023/05/08 01:20:50;;;;;;;9.25;7.25;;;;;;;9.49;100.00;93306.09;5131229;27;20392;-76
2023/05/08 01:23:53;;;;;;;9.45;7.97;;;;;;;9.49;100.00;93308.66;5131293;27;20514;-76
2023/05/08 01:27:13;;;;;;;11.68;7.78;;;;;;;9.46;100.00;93298.81;5130904;27;20043;-76
2023/05/08 01:29:57;;;;;;;9.98;7.95;;;;;;;9.45;100.00;93292.06;5131073;27;20090;-76
2023/05/08 01:32:33;;;;;;;12.88;8.52;;;;;;;8.81;100.00;93194.41;5130930;27;20544;-76
2023/05/08 01:35:07;;;;;;;8.65;7.65;;;;;;;9.52;100.00;93307.47;5131704;27;20043;-76
2023/05/08 01:37:40;;;;;;;8.77;6.90;;;;;;;9.48;100.00;93301.16;5131546;27;20050;-76
2023/05/08 01:40:16;;;;;;;8.30;6.47;;;;;;;9.44;100.00;93305.88;5130794;27;20039;-76
2023/05/08 01:42:49;;;;;;;;;;;;;;;9.43;100.00;93300.97;5131421;27;20047;-76
2023/05/08 01:45:21;;;;;;;8.40;6.75;;;;;;;9.35;100.00;93297.63;5131027;27;19920;-76
2023/05/08 01:47:58;;;;;;;9.38;6.60;;;;;;;9.24;100.00;93280.28;5131143;27;20043;-76
2023/05/08 01:50:30;;;;;;;9.32;6.80;;;;;;;9.18;100.00;93281.88;5131361;27;20069;-76
2023/05/08 01:53:02;;;;;;;9.10;6.75;;;;;;;9.22;100.00;93292.53;5130463;27;20039;-76
2023/05/08 01:55:34;;;;;;;7.50;6.25;;;;;;;9.14;100.00;93285.81;5129968;27;20050;-76
2023/05/08 01:58:05;;;;;;;7.32;6.28;;;;;;;9.23;100.00;93292.31;5130519;27;20039;-76
2023/05/08 02:00:32;;;;;;;9.52;7.28;;;;;;;9.21;100.00;93296.06;5130613;27;20043;-77
2023/05/08 02:03:02;;;;;;;12.32;7.18;;;;;;;9.16;100.00;93294.09;5130521;27;20392;-76
2023/05/08 02:05:30;;;;;;;9.00;7.47;;;;;;;9.13;100.00;93288.56;5130990;27;20047;-76
2023/05/08 02:07:58;;;;;;;8.50;7.30;;;;;;;9.08;100.00;93296.88;5130569;27;20476;-76
2023/05/08 02:10:26;;;;;;;7.88;6.72;;;;;;;9.04;100.00;93295.69;5129768;27;20123;-76
2023/05/08 02:12:54;;;;;;;10.00;7.50;;;;;;;8.96;100.00;93276.16;5130533;27;20092;-76
2023/05/08 02:15:22;;;;;;;8.50;7.07;;;;;;;9.02;100.00;93298.44;5130447;27;20051;-76
2023/05/08 02:17:51;;;;;;;10.15;8.43;;;;;;;9.11;100.00;93295.69;5130072;27;20080;-76
2023/05/08 02:20:21;;;;;;;9.45;7.15;;;;;;;9.09;100.00;93296.66;5129721;27;20088;-75
2023/05/08 02:22:50;;;;;;;8.90;6.95;;;;;;;9.12;100.00;93297.25;5129914;27;20051;-76
2023/05/08 02:25:19;;;;;;;10.43;6.68;;;;;;;9.08;100.00;93292.53;5129979;27;20039;-76
2023/05/08 02:27:47;;;;;;;9.45;6.93;;;;;;;9.09;100.00;93298.44;5129910;27;20035;-76
2023/05/08 02:30:16;;;;;;;8.63;6.80;;;;;;;9.05;100.00;93303.19;5129646;27;20084;-76
2023/05/08 02:32:44;;;;;;;8.88;7.15;;;;;;;8.98;100.00;93289.56;5129862;27;20043;-76
2023/05/08 02:35:14;;;;;;;10.45;7.55;;;;;;;9.09;100.00;93306.13;5129271;27;20075;-76
2023/05/08 02:37:45;;;;;;;9.32;6.82;;;;;;;9.07;100.00;93303.75;5130200;27;20404;-76
2023/05/08 02:40:14;;;;;;;8.98;7.20;;;;;;;9.00;100.00;93292.72;5128856;27;20487;-76
2023/05/08 02:42:41;;;;;;;9.15;7.22;;;;;;;9.07;100.00;93301.19;5130071;27;20048;-76
2023/05/08 02:45:10;;;;;;;7.65;6.85;;;;;;;9.00;100.00;93295.28;5130017;27;20409;-76
2023/05/08 02:47:46;;;;;;;8.55;7.38;;;;;;;9.10;100.00;93307.69;5129803;27;20047;-76
2023/05/08 02:50:17;;;;;;;9.98;7.40;;;;;;;9.05;100.00;93304.94;5129617;27;20108;-76
2023/05/08 02:52:49;;;;;;;8.80;7.38;;;;;;;9.00;100.00;93300.41;5128285;27;20419;-76
2023/05/08 02:55:30;;;;;;;11.05;8.52;;;;;;;8.95;100.00;93305.34;5125154;27;20047;-76
2023/05/08 02:58:04;;;;;;;10.23;7.43;;;;;;;8.91;100.00;93307.50;5129119;27;20043;-76
2023/05/08 03:00:33;;;;;;;13.15;9.98;;;;;;;8.94;100.00;93298.66;5102524;27;20035;-76
2023/05/08 03:03:04;;;;;;;16.58;12.75;;;;;;;8.97;100.00;93300.81;5129175;27;20050;-76
2023/05/08 03:05:35;;;;;;;14.00;10.80;;;;;;;9.01;100.00;93299.44;5128957;27;20112;-76
2023/05/08 03:08:10;;;;;;;12.60;10.65;;;;;;;9.01;100.00;93304.56;5128354;27;20089;-75
2023/05/08 03:10:39;;;;;;;12.82;10.32;;;;;;;8.99;100.00;93303.97;5128870;27;20047;-76
2023/05/08 03:13:09;;;;;;;13.40;9.60;;;;;;;8.97;100.00;93302.59;5128945;27;20415;-76
2023/05/08 03:15:41;;;;;;;14.15;10.32;;;;;;;8.93;100.00;93291.91;5128462;27;20043;-76
2023/05/08 03:18:11;;;;;;;13.20;10.63;;;;;;;8.95;100.00;93303.56;5115176;27;20054;-76
2023/05/08 03:20:41;;;;;;;13.13;10.55;;;;;;;8.76;100.00;93276.16;5116459;27;20043;-76
2023/05/08 03:23:12;;;;;;;15.15;10.27;;;;;;;8.96;100.00;93299.22;5128612;27;20494;-76
2023/05/08 03:25:42;;;;;;;13.48;10.13;;;;;;;8.99;100.00;93311.66;5129272;27;20088;-76
2023/05/08 03:28:10;;;;;;;15.38;9.88;;;;;;;8.99;100.00;93310.84;5128920;27;20171;-76
2023/05/08 03:30:38;;;;;;;15.13;9.63;;;;;;;9.04;100.00;93311.84;5128830;27;20051;-76
2023/05/08 03:33:06;;;;;;;13.80;9.18;;;;;;;8.97;100.00;93300.81;5128158;27;20050;-76
2023/05/08 03:35:35;;;;;;;16.92;10.52;;;;;;;9.07;100.00;93314.00;5129008;27;20046;-76
2023/05/08 03:38:01;;;;;;;13.35;9.02;;;;;;;9.11;100.00;93314.41;5128396;27;20464;-76
2023/05/08 03:40:30;;;;;;;18.00;9.60;;;;;;;9.12;100.00;93317.75;5129202;27;20050;-76
2023/05/08 03:42:58;;;;;;;10.35;7.82;;;;;;;9.18;100.00;93309.28;5128601;27;20051;-77
2023/05/08 03:45:26;;;;;;;11.45;7.82;;;;;;;9.20;100.00;93314.97;5128195;27;20047;-76
2023/05/08 03:47:54;;;;;;;10.13;8.20;;;;;;;9.15;100.00;93312.22;5127859;27;20043;-76
2023/05/08 03:50:21;;;;;;;14.07;8.75;;;;;;;9.15;100.00;93304.53;5128261;27;20058;-75
2023/05/08 03:52:48;;;;;;;20.58;9.10;;;;;;;9.26;100.00;93316.75;5128197;27;20092;-75
2023/05/08 03:55:15;;;;;;;16.38;9.73;;;;;;;9.33;100.00;93317.56;5128049;27;20062;-76
2023/05/08 03:57:50;;;;;;;12.10;8.70;;;;;;;9.38;100.00;93319.50;5128158;27;20482;-76
2023/05/08 04:00:26;;;;;;;15.50;9.32;;;;;;;9.47;100.00;93325.22;5128156;27;20047;-75
2023/05/08 04:02:56;;;;;;;;;;;;;;;9.53;100.00;93318.50;5129026;27;20092;-76
2023/05/08 04:05:31;;;;;;;12.43;9.40;;;;;;;9.51;100.00;93323.03;5127639;27;20704;-76
2023/05/08 04:08:07;;;;;;;15.65;9.52;;;;;;;9.47;100.00;93318.31;5128641;27;20454;-76
2023/05/08 04:10:42;;;;;;;16.35;11.43;;;;;;;9.58;100.00;93316.13;5127834;27;20043;-75
2023/05/08 04:13:13;;;;;;;14.52;11.20;;;;;;;9.64;100.00;93323.03;5127688;27;20040;-76
2023/05/08 04:15:50;;;;;;;17.42;12.73;;;;;;;9.69;100.00;93325.78;5101966;28;20046;-76
2023/05/08 04:18:22;;;;;;;16.48;12.43;;;;;;;9.60;100.00;93311.59;5127627;27;20047;-76
2023/05/08 04:20:50;;;;;;;18.45;12.13;;;;;;;9.71;100.00;93321.22;5110249;27;20040;-76
2023/05/08 04:23:20;;;;;;;21.42;12.93;;;;;;;9.79;100.00;93325.34;5120819;28;20043;-76
2023/05/08 04:25:49;;;;;;;20.38;12.05;;;;;;;9.90;100.00;93326.50;5127953;28;20088;-76
2023/05/08 04:28:18;;;;;;;16.70;11.68;;;;;;;10.03;100.00;93313.63;5128315;28;20050;-75
2023/05/08 04:30:45;;;;;;;19.15;11.55;;;;;;;10.19;100.00;93318.50;5127626;28;20075;-76
2023/05/08 04:33:13;;;;;;;16.85;10.50;;;;;;;10.40;100.00;93325.13;5127951;28;20061;-76
2023/05/08 04:35:41;;;;;;;20.02;11.90;;;;;;;10.50;100.00;93319.56;5127836;28;20067;-76
2023/05/08 04:38:07;;;;;;;17.65;10.60;;;;;;;10.67;100.00;93322.44;5127781;28;20055;-75
2023/05/08 04:40:34;;;;;;;19.27;10.60;;;;;;;10.81;100.00;93321.38;5127568;28;20491;-76
2023/05/08 04:43:01;;;;;;;17.42;9.70;;;;;;;10.97;100.00;93324.41;5127669;28;20148;-76
2023/05/08 04:45:29;;;;;;;18.17;10.45;;;;;;;11.08;100.00;93320.38;5127946;28;20483;-76
2023/05/08 04:47:56;;;;;;;14.50;9.27;;;;;;;11.23;100.00;93313.16;5127242;28;20567;-75
2023/05/08 04:50:23;;;;;;;18.15;10.77;;;;;;;11.19;100.00;93288.06;5127554;28;20136;-76
2023/05/08 04:52:49;;;;;;;15.30;10.32;;;;;;;11.43;100.00;93308.84;5127754;28;20048;-77
2023/05/08 04:55:17;;;;;;;13.75;9.05;;;;;;;11.55;100.00;93303.75;5127950;28;20101;-76
2023/05/08 04:57:44;;;;;;;15.52;10.02;;;;;;;11.56;100.00;93300.97;5127448;28;20484;-76
2023/05/08 05:00:12;;;;;;;19.30;10.90;;;;;;;11.65;100.00;93292.97;5127872;28;20046;-76
2023/05/08 05:02:40;;;;;;;17.52;11.07;;;;;;;11.86;100.00;93302.84;5127579;28;20044;-76
2023/05/08 05:05:08;;;;;;;16.52;10.27;;;;;;;11.90;100.00;93292.94;5127189;28;20075;-75
2023/05/08 05:07:35;;;;;;;16.90;9.95;;;;;;;12.04;100.00;93298.75;5127420;28;20044;-75
2023/05/08 05:10:01;;;;;;;15.05;10.38;;;;;;;12.24;100.00;93292.53;5127386;28;20087;-76
2023/05/08 05:12:28;;;;;;;17.65;10.75;;;;;;;12.38;100.00;93286.22;5127531;28;20065;-75
2023/05/08 05:14:55;;;;;;;13.90;9.93;;;;;;;12.47;100.00;93296.22;5127469;28;20047;-75
2023/05/08 05:17:22;;;;;;;18.00;10.05;;;;;;;12.50;100.00;93291.41;5127779;28;20111;-75
2023/05/08 05:19:50;;;;;;;14.60;10.38;;;;;;;12.70;100.00;93293.69;5127235;28;20111;-75
2023/05/08 05:22:16;;;;;;;14.93;10.07;;;;;;;12.74;100.00;93290.69;5127382;28;20047;-74
2023/05/08 05:24:43;;;;;;;20.25;11.55;;;;;;;12.87;100.00;93293.06;5126938;28;20507;-76
2023/05/08 05:27:10;;;;;;;15.98;10.85;;;;;;;13.04;100.00;93292.41;5127772;28;20044;-76
2023/05/08 05:29:37;;;;;;;19.15;12.90;;;;;;;13.25;100.00;93287.72;5127482;28;20411;-76
2023/05/08 05:32:06;;;;;;;16.70;10.48;;;;;;;13.47;100.00;93288.00;5129598;27;20058;-76
2023/05/08 05:34:32;;;;;;;15.93;9.85;;;;;;;13.73;100.00;93284.16;5130394;27;20047;-76
2023/05/08 05:37:00;;;;;;;16.40;9.48;;;;;;;14.03;100.00;93277.25;5131137;27;20047;-76
2023/05/08 05:39:27;;;;;;;18.83;8.15;;;;;;;14.35;100.00;93294.88;5130754;27;20043;-76
2023/05/08 05:41:54;;;;;;;10.93;7.68;;;;;;;14.63;100.00;93285.53;5131019;27;20107;-76
2023/05/08 05:44:21;;;;;;;8.65;6.07;;;;;;;14.90;100.00;93276.44;5130996;27;20116;-76
2023/05/08 05:46:47;;;;;;;11.25;6.50;;;;;;;15.16;100.00;93285.38;5130811;27;21625;-76
2023/05/08 05:49:14;;;;;;;11.45;6.78;;;;;;;15.38;100.00;93268.34;5130558;27;20043;-75
2023/05/08 05:51:41;;;;;;;11.15;5.85;;;;;;;15.56;100.00;93273.22;5130664;27;20048;-76
2023/05/08 05:54:09;;;;;;;9.48;6.10;;;;;;;15.65;100.00;93247.75;5130830;27;20050;-76
2023/05/08 05:56:36;;;;;;;8.93;5.57;;;;;;;16.05;100.00;93276.97;5131061;27;20441;-77
2023/05/08 05:59:03;;;;;;;11.55;5.80;;;;;;;16.24;100.00;93277.44;5130281;27;20043;-76
2023/05/08 06:01:29;;;;;;;8.25;5.45;;;;;;;16.42;100.00;93276.34;5130349;27;20047;-76
2023/05/08 06:03:56;;;;;;;9.60;5.45;;;;;;;16.62;99.56;93269.75;5130606;27;20411;-77
2023/05/08 06:06:23;;;;;;;13.00;6.22;;;;;;;16.81;97.61;93277.97;5130262;27;20609;-76
2023/05/08 06:08:50;;;;;;;8.23;4.90;;;;;;;17.01;95.39;93268.00;5130288;27;20099;-76
2023/05/08 06:11:18;;;;;;;9.20;5.32;;;;;;;17.21;94.19;93281.16;5130584;27;20051;-75
2023/05/08 06:13:45;;;;;;;8.30;5.07;;;;;;;17.54;93.34;93269.97;5130132;27;20057;-75
2023/05/08 06:16:12;;;;;;;12.50;5.57;;;;;;;17.76;91.14;93280.97;5129973;27;20092;-76
2023/05/08 06:18:38;;;;;;;12.23;4.93;;;;;;;17.83;87.96;93272.19;5129980;27;20049;-76
2023/05/08 06:21:05;;;;;;;7.88;4.70;;;;;;;17.82;87.00;93276.56;5130123;27;20039;-76
2023/05/08 06:23:32;;;;;;;11.27;5.82;;;;;;;17.95;86.60;93280.53;5130012;27;20088;-76
2023/05/08 06:25:59;;;;;;;11.10;5.25;;;;;;;17.88;85.89;93280.75;5130082;27;20054;-76
2023/05/08 06:28:27;;;;;;;7.95;4.68;;;;;;;18.07;86.08;93277.75;5129973;27;20042;-77
2023/05/08 06:30:54;;;;;;;9.35;4.95;;;;;;;18.07;85.81;93254.38;5129639;27;20522;-77
2023/05/08 06:33:21;;;;;;;8.35;5.13;;;;;;;18.36;83.90;93294.72;5129842;27;20048;-82
2023/05/08 06:35:48;;;;;;;8.68;4.40;;;;;;;18.28;83.94;93283.81;5130289;27;20487;-76
2023/05/08 06:38:15;;;;;;;5.95;4.43;;;;;;;18.33;84.04;93277.81;5129858;27;20051;-76
2023/05/08 06:40:43;;;;;;;7.32;4.60;;;;;;;18.37;83.04;93291.88;5129646;27;20058;-76
2023/05/08 06:43:10;;;;;;;6.20;4.57;;;;;;;18.35;83.28;93288.78;5103161;27;20133;-76
2023/05/08 06:45:39;;;;;;;10.20;5.05;;;;;;;18.42;83.31;93294.50;5129062;27;20043;-76
2023/05/08 06:48:06;;;;;;;8.88;4.50;;;;;;;18.45;83.08;93288.00;5129244;27;20508;-76
2023/05/08 06:50:33;;;;;;;8.88;4.35;;;;;;;18.60;82.78;93289.09;5129364;27;20058;-75
2023/05/08 06:53:00;;;;;;;7.68;4.55;;;;;;;18.76;82.05;93293.28;5129127;27;20043;-76
2023/05/08 06:55:26;;;;;;;11.65;5.03;;;;;;;19.08;82.62;93288.91;5129723;27;20559;-76
2023/05/08 06:57:53;;;;;;;10.25;4.60;;;;;;;19.29;80.17;93292.25;5129348;27;20487;-76
2023/05/08 07:00:20;;;;;;;8.07;4.50;;;;;;;19.54;79.32;93290.69;5128759;27;20488;-76
2023/05/08 07:02:48;;;;;;;8.43;4.55;;;;;;;19.71;76.26;93300.00;5128858;27;20651;-76
2023/05/08 07:05:16;;;;;;;9.63;4.75;;;;;;;19.91;74.82;93299.19;5129383;27;20044;-76
2023/05/08 07:07:43;;;;;;;9.07;5.28;;;;;;;20.13;74.36;93292.88;5129310;27;20560;-77
2023/05/08 07:10:10;;;;;;;11.20;4.10;;;;;;;20.28;72.99;93292.03;5128954;27;20040;-76
2023/05/08 07:12:37;;;;;;;5.15;3.72;;;;;;;20.50;71.48;93294.25;5129234;27;20050;-76
2023/05/08 07:15:05;;;;;;;5.35;4.18;;;;;;;20.51;70.51;93288.00;5128509;27;20051;-77
2023/05/08 07:17:35;;;;;;;7.85;3.70;;;;;;;20.68;68.86;93294.69;5129164;27;20054;-76
2023/05/08 07:20:04;;;;;;;7.97;4.43;;;;;;;20.80;69.69;93294.34;5129251;27;20628;-76
2023/05/08 07:22:30;;;;;;;12.20;4.07;;;;;;;20.94;69.21;93295.34;5129206;27;20070;-76
2023/05/08 07:24:57;;;;;;;8.98;4.05;;;;;;;20.97;66.78;93299.25;5128684;27;20096;-76
2023/05/08 07:27:24;;;;;;;10.05;4.40;;;;;;;21.01;68.53;93284.56;5128589;27;20054;-76
2023/05/08 07:29:51;;;;;;;6.30;4.30;;;;;;;21.17;67.84;93292.28;5128536;27;20057;-76
2023/05/08 07:32:17;;;;;;;7.00;4.70;;;;;;;21.16;66.58;93281.03;5128829;27;20050;-76
2023/05/08 07:34:44;;;;;;;5.35;3.72;;;;;;;21.21;66.85;93301.13;5128696;27;20039;-76
2023/05/08 07:37:12;;;;;;;6.15;3.78;;;;;;;21.17;64.96;93298.31;5128907;27;20047;-76
2023/05/08 07:39:39;;;;;;;15.57;4.78;;;;;;;21.29;66.10;93305.75;5128578;27;20043;-76
2023/05/08 07:42:06;;;;;;;7.57;3.90;;;;;;;21.30;66.33;93298.72;5128527;27;20052;-76
2023/05/08 07:44:33;;;;;;;9.32;4.70;;;;;;;21.10;67.16;93292.59;5124354;27;20391;-76
2023/05/08 07:47:00;;;;;;;7.97;4.60;;;;;;;20.81;69.18;93293.28;5128745;27;20043;-76
2023/05/08 07:49:27;;;;;;;10.70;5.22;;;;;;;20.73;69.63;93304.31;5128078;27;20400;-76
2023/05/08 07:51:53;;;;;;;8.70;5.18;;;;;;;20.45;71.76;93301.34;5128571;27;20096;-76
2023/05/08 07:54:21;;;;;;;12.20;5.43;;;;;;;20.72;69.23;93300.13;5127611;27;20047;-76
2023/05/08 07:56:48;;;;;;;8.98;4.70;;;;;;;20.92;71.15;93307.88;5128563;27;20050;-76
2023/05/08 07:59:15;;;;;;;11.70;5.40;;;;;;;21.13;69.51;93305.13;5128064;27;20050;-76
2023/05/08 08:01:46;;;;;;;8.95;4.88;;;;;;;21.47;68.54;93311.34;5117347;27;20454;-76
2023/05/08 08:04:12;;;;;;;8.38;4.75;;;;;;;21.59;66.54;93308.38;5125339;27;20043;-76
2023/05/08 08:06:39;;;;;;;9.32;4.43;;;;;;;21.77;64.50;93320.00;5128175;27;20039;-76
2023/05/08 08:09:06;;;;;;;8.68;4.93;;;;;;;21.98;64.25;93323.19;5127784;27;20092;-76
2023/05/08 08:11:34;;;;;;;14.95;4.82;;;;;;;22.13;63.53;93319.59;5128029;27;20054;-76
2023/05/08 08:14:01;;;;;;;15.48;5.57;;;;;;;22.09;62.52;93333.53;5128544;27;20039;-76
2023/05/08 08:16:28;;;;;;;13.65;5.57;;;;;;;21.94;63.14;93329.25;5127797;27;20485;-76
2023/05/08 08:18:55;;;;;;;12.10;4.60;;;;;;;20.90;67.36;93330.06;5128350;27;20074;-76
2023/05/08 08:21:22;;;;;;;12.82;4.45;;;;;;;20.59;69.10;93331.00;5127962;27;20039;-76
2023/05/08 08:23:48;;;;;;;11.38;5.07;;;;;;;20.59;69.39;93338.06;5128265;28;20507;-76
2023/05/08 08:26:15;;;;;;;11.35;5.22;;;;;;;20.42;70.26;93326.16;5127644;28;20051;-76
2023/05/08 08:28:43;;;;;;;8.73;4.82;;;;;;;19.62;75.60;93337.03;5127456;28;20074;-76
2023/05/08 08:31:15;;;;;;;5.78;4.10;;;;;;;19.45;74.99;93333.94;5114800;28;20048;-76
2023/05/08 08:33:41;;;;;;;11.10;5.53;;;;;;;19.08;79.57;93333.16;5102592;28;20050;-75
2023/05/08 08:36:13;;;;;;;11.70;6.32;;;;;;;19.16;79.03;93322.22;5128386;28;20104;-76
2023/05/08 08:38:39;;;;;;;13.45;5.78;;;;;;;18.89;80.10;93331.00;5127647;28;20049;-76
2023/05/08 08:41:06;;;;;;;13.52;5.90;;;;;;;18.58;81.74;93325.75;5127274;28;20059;-75
2023/05/08 08:43:34;;;;;;;10.80;5.72;;;;;;;18.81;81.49;93319.31;5127915;28;20043;-76
2023/05/08 08:46:11;;;;;;;17.52;7.20;;;;;;;18.38;83.06;93329.09;5127689;28;20079;-76
2023/05/08 08:48:43;;;;;;;15.27;6.38;;;;;;;18.53;84.58;93307.53;5127542;28;20151;-76
2023/05/08 08:51:18;;;;;;;14.52;6.50;;;;;;;18.30;83.10;93307.72;5128067;28;20532;-76
2023/05/08 08:53:49;;;;;;;11.32;6.03;;;;;;;18.36;80.33;93305.13;5127277;28;20491;-76
2023/05/08 08:56:16;;;;;;;13.88;5.75;;;;;;;18.58;78.94;93315.34;5127310;28;20495;-76
2023/05/08 08:58:49;;;;;;;10.15;6.05;;;;;;;18.70;81.53;93318.50;5127571;28;20054;-76
2023/05/08 09:01:19;;;;;;;18.30;6.57;;;;;;;18.91;85.20;93302.91;5127566;28;20499;-78
2023/05/08 09:03:46;;;;;;;14.30;7.53;;;;;;;19.08;89.33;93302.69;5127177;28;20047;-77
2023/05/08 09:06:14;;;;;;;8.70;6.03;;;;;;;19.21;88.57;93293.56;5129198;27;20441;-78
2023/05/08 09:08:41;;;;;;;13.50;6.15;;;;;;;19.29;93.14;93284.44;5131570;27;20051;-77
2023/05/08 09:11:07;;;;;;;10.13;6.10;;;;;;;19.27;91.03;93264.94;5131184;27;20100;-77
2023/05/08 09:13:34;;;;;;;11.02;5.85;;;;;;;19.37;91.73;93272.72;5127511;27;20047;-77
2023/05/08 09:16:01;;;;;;;7.95;5.68;;;;;;;19.35;91.18;93261.81;5131462;27;20064;-77
2023/05/08 09:18:29;;;;;;;9.38;5.28;;;;;;;19.52;90.01;93265.94;5130751;27;20153;-76
2023/05/08 09:20:57;;;;;;;7.93;5.30;;;;;;;19.47;86.37;93261.50;5117405;27;20047;-78
2023/05/08 09:23:24;;;;;;;10.48;5.65;;;;;;;19.51;87.25;93267.75;5131142;27;20449;-78
2023/05/08 09:25:51;;;;;;;7.65;5.38;;;;;;;19.53;86.86;93250.03;5130392;27;20526;-77
2023/05/08 09:28:18;;;;;;;8.00;5.22;;;;;;;19.73;85.53;93257.00;5118450;27;20040;-77
2023/05/08 09:30:52;;;;;;;11.40;5.55;;;;;;;19.85;83.18;93271.56;5129841;27;20047;-77
2023/05/08 09:33:19;;;;;;;9.75;5.75;;;;;;;19.99;83.09;93269.19;5131240;27;20047;-77
2023/05/08 09:35:48;;;;;;;9.27;5.25;;;;;;;20.08;77.00;93272.06;5103968;27;20047;-77
2023/05/08 09:38:37;;;;;;;10.13;5.05;;;;;;;20.28;78.50;93265.97;5130904;27;20079;-77
2023/05/08 09:41:08;;;;;;;6.35;3.88;;;;;;;20.38;71.14;93272.94;5130441;27;20051;-77
2023/05/08 09:43:35;;;;;;;7.25;3.80;;;;;;;20.60;73.50;93282.22;5130420;27;20043;-78
2023/05/08 09:46:22;;;;;;;7.47;4.30;;;;;;;20.79;72.21;93283.13;5130830;27;20054;-76
2023/05/08 09:48:49;;;;;;;4.80;3.90;;;;;;;20.56;67.57;93287.19;5131188;27;20486;-75
2023/05/08 09:51:17;;;;;;;6.15;3.92;;;;;;;20.64;71.64;93285.84;5131104;27;20092;-75
2023/05/08 09:53:44;;;;;;;12.80;6.32;;;;;;;20.77;73.95;93277.41;5130802;27;20522;-75
2023/05/08 09:56:11;;;;;;;7.75;4.65;;;;;;;20.33;69.28;93263.31;5130122;27;20054;-74
2023/05/08 09:58:39;;;;;;;7.47;4.13;;;;;;;20.54;68.27;93277.03;5130863;27;20043;-75
2023/05/08 10:01:06;;;;;;;10.32;5.10;;;;;;;20.71;72.85;93273.28;5130237;27;20077;-75
2023/05/08 10:03:48;;;;;;;10.98;6.00;;;;;;;20.66;75.45;93268.09;5130068;27;20054;-76
2023/05/08 10:06:17;;;;;;;12.00;6.15;;;;;;;20.69;71.70;93273.53;5130876;27;20043;-75
2023/05/08 10:08:45;;;;;;;10.68;6.03;;;;;;;20.65;70.06;93266.53;5129174;27;20495;-75
2023/05/08 10:11:16;;;;;;;13.55;5.43;;;;;;;20.69;69.42;93267.56;5130351;27;20055;-75
2023/05/08 10:13:43;;;;;;;17.63;6.18;;;;;;;20.26;77.62;93255.78;5125591;27;20121;-74
2023/05/08 10:16:14;;;;;;;11.52;4.38;;;;;;;20.36;70.48;93262.00;5120938;27;20039;-75
2023/05/08 10:18:46;;;;;;;19.45;5.38;;;;;;;19.68;69.22;93248.44;5120519;27;20478;-75
2023/05/08 10:21:14;;;;;;;13.50;5.07;;;;;;;20.24;74.08;93259.72;5122218;27;20047;-75
2023/05/08 10:23:42;;;;;;;14.85;5.63;;;;;;;20.23;70.49;93260.75;5121470;27;20054;-75
2023/05/08 10:26:13;;;;;;;16.70;5.95;;;;;;;20.31;70.45;93256.81;5129933;27;20134;-74
2023/05/08 10:28:44;;;;;;;16.58;4.93;;;;;;;20.18;67.36;93245.13;5130041;27;20135;-75
2023/05/08 10:31:13;;;;;;;12.25;4.50;;;;;;;19.90;70.93;93258.50;5129416;27;20049;-74
2023/05/08 10:33:41;;;;;;;10.18;4.22;;;;;;;19.76;70.66;93256.47;5128989;27;20075;-74
2023/05/08 10:36:09;;;;;;;12.95;5.95;;;;;;;19.77;73.09;93236.44;5128957;27;20800;-75
2023/05/08 10:38:37;;;;;;;12.10;5.22;;;;;;;20.41;73.06;93249.69;5129478;27;20051;-75
2023/05/08 10:41:07;;;;;;;9.93;4.10;;;;;;;21.16;73.93;93244.47;5129726;27;20058;-75
2023/05/08 10:43:34;;;;;;;5.07;3.92;;;;;;;21.55;63.25;93252.47;5127561;27;20059;-75
2023/05/08 10:46:07;;;;;;;6.90;4.28;;;;;;;21.97;65.24;93222.25;5128323;27;20472;-76
2023/05/08 10:48:43;;;;;;;10.75;4.72;;;;;;;22.61;64.88;93231.63;5129532;27;20051;-75
2023/05/08 10:51:19;;;;;;;4.75;3.60;;;;;;;23.17;61.48;93228.41;5129746;27;20094;-76
2023/05/08 10:53:52;;;;;;;4.97;3.90;;;;;;;23.43;58.94;93230.63;5129583;27;20082;-75
2023/05/08 10:56:26;;;;;;;6.93;3.67;;;;;;;23.58;58.92;93232.97;5129830;27;20054;-75
2023/05/08 10:58:56;;;;;;;6.05;3.65;;;;;;;23.83;57.60;93207.31;5128518;27;20043;-75
2023/05/08 11:01:23;;;;;;;4.57;3.15;;;;;;;24.32;54.87;93224.44;5129339;27;20078;-76
2023/05/08 11:03:51;;;;;;;7.32;3.65;;;;;;;24.21;53.92;93206.28;5115755;27;20089;-75
2023/05/08 11:06:18;;;;;;;8.75;3.60;;;;;;;24.65;54.72;93219.00;5129261;27;20452;-76
2023/05/08 11:08:48;;;;;;;7.53;3.22;;;;;;;24.67;50.77;93209.75;5128930;27;20619;-76
2023/05/08 11:11:27;;;;;;;6.53;3.58;;;;;;;24.46;49.79;93201.56;5129479;27;20516;-76
2023/05/08 11:13:59;;;;;;;5.85;3.17;;;;;;;24.75;50.69;93207.47;5129004;27;20096;-76
2023/05/08 11:17:07;;;;;;;4.80;3.13;;;;;;;24.66;46.36;93210.03;5129055;27;20422;-76
2023/05/08 11:19:34;;;;;;;4.85;2.97;;;;;;;24.66;48.10;93196.91;5114002;27;20457;-76
2023/05/08 11:22:15;;;;;;;5.28;3.00;;;;;;;24.74;49.67;93179.66;5128998;27;20083;-77
2023/05/08 11:24:48;;;;;;;5.50;2.95;;;;;;;24.95;50.00;93186.00;5128395;27;20055;-75
2023/05/08 11:27:17;;;;;;;6.15;3.22;;;;;;;25.18;49.50;93185.19;5129448;27;20776;-76
2023/05/08 11:29:44;;;;;;;6.97;3.33;;;;;;;25.45;47.73;93181.59;5127858;27;20043;-76
2023/05/08 11:32:11;;;;;;;3.85;2.70;;;;;;;25.63;43.57;93186.94;5128902;27;20130;-76
2023/05/08 11:34:48;;;;;;;4.13;2.90;;;;;;;25.91;46.85;93176.16;5128769;27;20059;-75
2023/05/08 11:37:19;;;;;;;4.30;2.50;;;;;;;26.14;42.72;93171.56;5128946;27;20054;-76